sensor_id;sensor_type;location;lat;lon;timestamp;pressure;altitude;pressure_sealevel;temperature;humidity
43153;BME280;28756;49.064;9.290;2023-04-28T00:00:46;98921.88;;;7.42;100.00
43153;BME280;28756;49.064;9.290;2023-04-28T00:03:12;98925.16;;;7.46;100.00
43153;BME280;28756;49.064;9.290;2023-04-28T00:05:38;98919.16;;;7.46;100.00
43153;BME280;28756;49.064;9.290;2023-04-28T00:08:04;98912.31;;;7.45;100.00
43153;BME280;28756;49.064;9.290;2023-04-28T00:10:30;98904.41;;;7.48;100.00
43153;BME280;28756;49.064;9.290;2023-04-28T00:12:56;98906.94;;;7.49;100.00
43153;BME280;28756;49.064;9.290;2023-04-28T00:15:22;98906.81;;;7.52;100.00
43153;BME280;28756;49.064;9.290;2023-04-28T00:17:47;98901.56;;;7.54;100.00
43153;BME280;28756;49.064;9.290;2023-04-28T00:20:13;98903.22;;;7.55;100.00
43153;BME280;28756;49.064;9.290;2023-04-28T00:22:39;98897.91;;;7.58;100.00
43153;BME280;28756;49.064;9.290;2023-04-28T00:25:06;98888.19;;;7.63;100.00
43153;BME280;28756;49.064;9.290;2023-04-28T00:27:33;98893.88;;;7.71;100.00
43153;BME280;28756;49.064;9.290;2023-04-28T00:29:59;98893.72;;;7.74;100.00
43153;BME280;28756;49.064;9.290;2023-04-28T00:32:25;98902.16;;;7.78;100.00
43153;BME280;28756;49.064;9.290;2023-04-28T00:34:51;98895.88;;;7.84;100.00
43153;BME280;28756;49.064;9.290;2023-04-28T00:37:18;98897.34;;;7.89;100.00
43153;BME280;28756;49.064;9.290;2023-04-28T00:39:44;98898.94;;;7.92;100.00
43153;BME280;28756;49.064;9.290;2023-04-28T00:42:14;98885.09;;;7.93;100.00
43153;BME280;28756;49.064;9.290;2023-04-28T00:44:40;98886.69;;;7.96;100.00
43153;BME280;28756;49.064;9.290;2023-04-28T00:47:07;98887.41;;;7.99;100.00
43153;BME280;28756;49.064;9.290;2023-04-28T00:49:34;98884.59;;;8.04;100.00
43153;BME280;28756;49.064;9.290;2023-04-28T00:52:04;98886.97;;;8.09;100.00
43153;BME280;28756;49.064;9.290;2023-04-28T00:54:32;98877.28;;;8.12;100.00
43153;BME280;28756;49.064;9.290;2023-04-28T00:56:59;98872.03;;;8.14;100.00
43153;BME280;28756;49.064;9.290;2023-04-28T00:59:28;98881.47;;;8.15;100.00
43153;BME280;28756;49.064;9.290;2023-04-28T01:01:54;98885.66;;;8.17;100.00
43153;BME280;28756;49.064;9.290;2023-04-28T01:04:22;98882.47;;;8.12;100.00
43153;BME280;28756;49.064;9.290;2023-04-28T01:06:52;98883.84;;;8.19;100.00
43153;BME280;28756;49.064;9.290;2023-04-28T01:09:20;98877.63;;;8.24;100.00
43153;BME280;28756;49.064;9.290;2023-04-28T01:11:46;98866.88;;;8.31;100.00
43153;BME280;28756;49.064;9.290;2023-04-28T01:14:12;98860.56;;;8.37;100.00
43153;BME280;28756;49.064;9.290;2023-04-28T01:16:38;98864.63;;;8.43;100.00
43153;BME280;28756;49.064;9.290;2023-04-28T01:19:15;98859.75;;;8.36;100.00
43153;BME280;28756;49.064;9.290;2023-04-28T01:21:41;98848.81;;;8.30;100.00
43153;BME280;28756;49.064;9.290;2023-04-28T01:24:07;98863.06;;;8.21;100.00
43153;BME280;28756;49.064;9.290;2023-04-28T01:26:33;98865.25;;;8.11;100.00
43153;BME280;28756;49.064;9.290;2023-04-28T01:28:59;98863.44;;;8.13;100.00
43153;BME280;28756;49.064;9.290;2023-04-28T01:31:25;98867.72;;;8.14;100.00
43153;BME280;28756;49.064;9.290;2023-04-28T01:33:51;98869.31;;;8.17;100.00
43153;BME280;28756;49.064;9.290;2023-04-28T01:36:16;98858.88;;;8.18;100.00
43153;BME280;28756;49.064;9.290;2023-04-28T01:38:42;98856.06;;;8.23;100.00
43153;BME280;28756;49.064;9.290;2023-04-28T01:41:08;98852.56;;;8.24;100.00
43153;BME280;28756;49.064;9.290;2023-04-28T01:43:34;98864.59;;;8.25;100.00
43153;BME280;28756;49.064;9.290;2023-04-28T01:45:59;98868.09;;;8.24;100.00
43153;BME280;28756;49.064;9.290;2023-04-28T01:48:25;98865.38;;;8.27;100.00
43153;BME280;28756;49.064;9.290;2023-04-28T01:50:51;98866.38;;;8.25;100.00
43153;BME280;28756;49.064;9.290;2023-04-28T01:53:17;98851.78;;;8.22;100.00
43153;BME280;28756;49.064;9.290;2023-04-28T01:55:45;98853.69;;;8.18;100.00
43153;BME280;28756;49.064;9.290;2023-04-28T01:58:12;98838.31;;;8.15;100.00
43153;BME280;28756;49.064;9.290;2023-04-28T02:00:38;98843.31;;;8.18;100.00
43153;BME280;28756;49.064;9.290;2023-04-28T02:03:03;98841.41;;;8.22;100.00
43153;BME280;28756;49.064;9.290;2023-04-28T02:05:29;98844.91;;;8.21;100.00
43153;BME280;28756;49.064;9.290;2023-04-28T02:07:55;98851.19;;;8.17;100.00
43153;BME280;28756;49.064;9.290;2023-04-28T02:10:21;98834.63;;;8.19;100.00
43153;BME280;28756;49.064;9.290;2023-04-28T02:12:47;98850.09;;;8.21;100.00
43153;BME280;28756;49.064;9.290;2023-04-28T02:15:13;98836.25;;;8.22;100.00
43153;BME280;28756;49.064;9.290;2023-04-28T02:17:38;98841.19;;;8.27;100.00
43153;BME280;28756;49.064;9.290;2023-04-28T02:20:05;98842.97;;;8.26;100.00
43153;BME280;28756;49.064;9.290;2023-04-28T02:22:31;98844.34;;;8.33;100.00
43153;BME280;28756;49.064;9.290;2023-04-28T02:24:57;98842.56;;;8.34;100.00
43153;BME280;28756;49.064;9.290;2023-04-28T02:27:22;98839.91;;;8.35;100.00
43153;BME280;28756;49.064;9.290;2023-04-28T02:29:48;98845.78;;;8.39;100.00
43153;BME280;28756;49.064;9.290;2023-04-28T02:32:14;98843.13;;;8.41;100.00
43153;BME280;28756;49.064;9.290;2023-04-28T02:34:40;98842.03;;;8.45;100.00
43153;BME280;28756;49.064;9.290;2023-04-28T02:37:05;98845.34;;;8.48;100.00
43153;BME280;28756;49.064;9.290;2023-04-28T02:39:31;98837.50;;;8.50;100.00
43153;BME280;28756;49.064;9.290;2023-04-28T02:41:57;98836.38;;;8.56;100.00
43153;BME280;28756;49.064;9.290;2023-04-28T02:44:23;98830.78;;;8.63;100.00
43153;BME280;28756;49.064;9.290;2023-04-28T02:46:49;98842.75;;;8.66;100.00
43153;BME280;28756;49.064;9.290;2023-04-28T02:49:15;98842.75;;;8.66;100.00
43153;BME280;28756;49.064;9.290;2023-04-28T02:51:41;98842.75;;;8.66;100.00
43153;BME280;28756;49.064;9.290;2023-04-28T02:54:07;98847.09;;;8.65;100.00
43153;BME280;28756;49.064;9.290;2023-04-28T02:56:34;98851.38;;;8.66;100.00
43153;BME280;28756;49.064;9.290;2023-04-28T02:59:00;98846.19;;;8.66;100.00
43153;BME280;28756;49.064;9.290;2023-04-28T03:01:26;98842.69;;;8.67;100.00
43153;BME280;28756;49.064;9.290;2023-04-28T03:03:51;98833.22;;;8.66;100.00
43153;BME280;28756;49.064;9.290;2023-04-28T03:06:17;98840.78;;;8.71;100.00
43153;BME280;28756;49.064;9.290;2023-04-28T03:08:43;98843.28;;;8.73;100.00
43153;BME280;28756;49.064;9.290;2023-04-28T03:11:09;98842.38;;;8.74;100.00
43153;BME280;28756;49.064;9.290;2023-04-28T03:13:35;98842.38;;;8.74;100.00
43153;BME280;28756;49.064;9.290;2023-04-28T03:16:01;98845.88;;;8.73;100.00
43153;BME280;28756;49.064;9.290;2023-04-28T03:18:27;98849.25;;;8.75;100.00
43153;BME280;28756;49.064;9.290;2023-04-28T03:20:53;98857.06;;;8.73;100.00
43153;BME280;28756;49.064;9.290;2023-04-28T03:23:19;98859.91;;;8.68;100.00
43153;BME280;28756;49.064;9.290;2023-04-28T03:25:45;98850.47;;;8.67;100.00
43153;BME280;28756;49.064;9.290;2023-04-28T03:28:10;98849.69;;;8.65;100.00
43153;BME280;28756;49.064;9.290;2023-04-28T03:30:36;98843.75;;;8.63;100.00
43153;BME280;28756;49.064;9.290;2023-04-28T03:33:02;98839.78;;;8.56;100.00
43153;BME280;28756;49.064;9.290;2023-04-28T03:35:27;98826.69;;;8.59;100.00
43153;BME280;28756;49.064;9.290;2023-04-28T03:37:53;98817.75;;;8.65;100.00
43153;BME280;28756;49.064;9.290;2023-04-28T03:40:19;98815.91;;;8.67;100.00
43153;BME280;28756;49.064;9.290;2023-04-28T03:42:45;98804.41;;;8.73;100.00
43153;BME280;28756;49.064;9.290;2023-04-28T03:45:11;98793.13;;;8.74;100.00
43153;BME280;28756;49.064;9.290;2023-04-28T03:47:37;98795.63;;;8.75;100.00
43153;BME280;28756;49.064;9.290;2023-04-28T03:50:03;98803.25;;;8.78;100.00
43153;BME280;28756;49.064;9.290;2023-04-28T03:52:29;98804.25;;;8.76;100.00
43153;BME280;28756;49.064;9.290;2023-04-28T03:54:55;98800.13;;;8.72;100.00
43153;BME280;28756;49.064;9.290;2023-04-28T03:57:21;98798.22;;;8.75;100.00
43153;BME280;28756;49.064;9.290;2023-04-28T03:59:46;98800.81;;;8.75;100.00
43153;BME280;28756;49.064;9.290;2023-04-28T04:02:12;98796.47;;;8.76;100.00
43153;BME280;28756;49.064;9.290;2023-04-28T04:04:38;98797.22;;;8.78;100.00
43153;BME280;28756;49.064;9.290;2023-04-28T04:07:04;98792.69;;;8.81;100.00
43153;BME280;28756;49.064;9.290;2023-04-28T04:09:29;98790.88;;;8.83;100.00
43153;BME280;28756;49.064;9.290;2023-04-28T04:11:55;98795.91;;;8.87;100.00
43153;BME280;28756;49.064;9.290;2023-04-28T04:14:21;98800.19;;;8.88;100.00
43153;BME280;28756;49.064;9.290;2023-04-28T04:16:47;98802.69;;;8.89;100.00
43153;BME280;28756;49.064;9.290;2023-04-28T04:19:13;98802.59;;;8.91;100.00
43153;BME280;28756;49.064;9.290;2023-04-28T04:21:38;98807.63;;;8.94;100.00
43153;BME280;28756;49.064;9.290;2023-04-28T04:24:05;98813.75;;;8.93;100.00
43153;BME280;28756;49.064;9.290;2023-04-28T04:26:30;98815.41;;;8.94;100.00
43153;BME280;28756;49.064;9.290;2023-04-28T04:28:56;98814.66;;;8.92;100.00
43153;BME280;28756;49.064;9.290;2023-04-28T04:31:22;98813.50;;;8.97;100.00
43153;BME280;28756;49.064;9.290;2023-04-28T04:33:48;98819.44;;;8.99;100.00
43153;BME280;28756;49.064;9.290;2023-04-28T04:36:13;98806.31;;;9.03;100.00
43153;BME280;28756;49.064;9.290;2023-04-28T04:38:39;98807.91;;;9.05;100.00
43153;BME280;28756;49.064;9.290;2023-04-28T04:41:05;98804.16;;;9.11;100.00
43153;BME280;28756;49.064;9.290;2023-04-28T04:43:31;98808.41;;;9.12;100.00
43153;BME280;28756;49.064;9.290;2023-04-28T04:45:57;98798.03;;;9.12;100.00
43153;BME280;28756;49.064;9.290;2023-04-28T04:48:22;98791.75;;;9.16;100.00
43153;BME280;28756;49.064;9.290;2023-04-28T04:50:48;98795.22;;;9.16;100.00
43153;BME280;28756;49.064;9.290;2023-04-28T04:53:14;98790.59;;;9.22;100.00
43153;BME280;28756;49.064;9.290;2023-04-28T04:55:40;98786.09;;;9.25;100.00
43153;BME280;28756;49.064;9.290;2023-04-28T04:58:06;98777.97;;;9.31;100.00
43153;BME280;28756;49.064;9.290;2023-04-28T05:00:32;98766.78;;;9.47;100.00
43153;BME280;28756;49.064;9.290;2023-04-28T05:02:58;98759.72;;;9.49;100.00
43153;BME280;28756;49.064;9.290;2023-04-28T05:05:24;98749.06;;;9.70;100.00
43153;BME280;28756;49.064;9.290;2023-04-28T05:07:50;98750.81;;;9.69;100.00
43153;BME280;28756;49.064;9.290;2023-04-28T05:10:15;98753.16;;;9.74;100.00
43153;BME280;28756;49.064;9.290;2023-04-28T05:12:41;98742.91;;;9.87;100.00
43153;BME280;28756;49.064;9.290;2023-04-28T05:15:09;98740.88;;;9.92;100.00
43153;BME280;28756;49.064;9.290;2023-04-28T05:17:35;98738.88;;;9.97;100.00
43153;BME280;28756;49.064;9.290;2023-04-28T05:20:01;98732.38;;;10.04;100.00
43153;BME280;28756;49.064;9.290;2023-04-28T05:22:27;98727.75;;;10.09;100.00
43153;BME280;28756;49.064;9.290;2023-04-28T05:24:53;98718.78;;;10.15;100.00
43153;BME280;28756;49.064;9.290;2023-04-28T05:27:19;98712.66;;;10.16;100.00
43153;BME280;28756;49.064;9.290;2023-04-28T05:29:45;98695.88;;;10.22;100.00
43153;BME280;28756;49.064;9.290;2023-04-28T05:32:10;98703.28;;;10.28;100.00
43153;BME280;28756;49.064;9.290;2023-04-28T05:34:36;98691.78;;;10.32;100.00
43153;BME280;28756;49.064;9.290;2023-04-28T05:37:02;98694.13;;;10.37;100.00
43153;BME280;28756;49.064;9.290;2023-04-28T05:39:28;98704.25;;;10.41;100.00
43153;BME280;28756;49.064;9.290;2023-04-28T05:41:53;98703.22;;;10.44;100.00
43153;BME280;28756;49.064;9.290;2023-04-28T05:44:19;98712.59;;;10.47;100.00
43153;BME280;28756;49.064;9.290;2023-04-28T05:46:45;98716.88;;;10.48;100.00
43153;BME280;28756;49.064;9.290;2023-04-28T05:49:11;98715.41;;;10.58;100.00
43153;BME280;28756;49.064;9.290;2023-04-28T05:51:37;98717.09;;;10.59;100.00
43153;BME280;28756;49.064;9.290;2023-04-28T05:54:03;98708.16;;;10.63;100.00
43153;BME280;28756;49.064;9.290;2023-04-28T05:56:29;98715.50;;;10.71;100.00
43153;BME280;28756;49.064;9.290;2023-04-28T05:58:55;98711.69;;;10.77;100.00
43153;BME280;28756;49.064;9.290;2023-04-28T06:01:21;98715.88;;;10.79;100.00
43153;BME280;28756;49.064;9.290;2023-04-28T06:03:47;98720.88;;;10.82;100.00
43153;BME280;28756;49.064;9.290;2023-04-28T06:06:13;98714.44;;;10.88;100.00
43153;BME280;28756;49.064;9.290;2023-04-28T06:08:39;98734.97;;;10.93;100.00
43153;BME280;28756;49.064;9.290;2023-04-28T06:11:05;98733.31;;;10.92;100.00
43153;BME280;28756;49.064;9.290;2023-04-28T06:13:31;98735.38;;;10.86;100.00
43153;BME280;28756;49.064;9.290;2023-04-28T06:15:57;98730.97;;;10.87;100.00
43153;BME280;28756;49.064;9.290;2023-04-28T06:18:23;98739.81;;;10.84;100.00
43153;BME280;28756;49.064;9.290;2023-04-28T06:20:49;98737.59;;;10.78;100.00
43153;BME280;28756;49.064;9.290;2023-04-28T06:23:15;98748.75;;;10.80;100.00
43153;BME280;28756;49.064;9.290;2023-04-28T06:25:41;98755.81;;;10.78;100.00
43153;BME280;28756;49.064;9.290;2023-04-28T06:28:07;98762.97;;;10.74;100.00
43153;BME280;28756;49.064;9.290;2023-04-28T06:30:34;98752.28;;;10.65;100.00
43153;BME280;28756;49.064;9.290;2023-04-28T06:33:00;98756.25;;;10.56;100.00
43153;BME280;28756;49.064;9.290;2023-04-28T06:35:27;98760.16;;;10.49;100.00
43153;BME280;28756;49.064;9.290;2023-04-28T06:37:53;98753.66;;;10.41;100.00
43153;BME280;28756;49.064;9.290;2023-04-28T06:40:18;98763.72;;;10.32;100.00
43153;BME280;28756;49.064;9.290;2023-04-28T06:42:44;98770.28;;;10.23;100.00
43153;BME280;28756;49.064;9.290;2023-04-28T06:45:10;98771.03;;;10.25;100.00
43153;BME280;28756;49.064;9.290;2023-04-28T06:47:36;98771.28;;;10.20;100.00
43153;BME280;28756;49.064;9.290;2023-04-28T06:50:02;98772.47;;;10.15;100.00
43153;BME280;28756;49.064;9.290;2023-04-28T06:52:28;98779.44;;;10.14;100.00
43153;BME280;28756;49.064;9.290;2023-04-28T06:54:55;98780.47;;;10.11;100.00
43153;BME280;28756;49.064;9.290;2023-04-28T06:57:21;98775.38;;;10.10;100.00
43153;BME280;28756;49.064;9.290;2023-04-28T06:59:46;98775.44;;;10.08;100.00
43153;BME280;28756;49.064;9.290;2023-04-28T07:02:12;98778.03;;;10.08;100.00
43153;BME280;28756;49.064;9.290;2023-04-28T07:04:38;98777.78;;;10.13;100.00
43153;BME280;28756;49.064;9.290;2023-04-28T07:07:04;98773.44;;;10.14;100.00
43153;BME280;28756;49.064;9.290;2023-04-28T07:09:34;98765.53;;;10.15;100.00
43153;BME280;28756;49.064;9.290;2023-04-28T07:12:01;98779.56;;;10.13;100.00
43153;BME280;28756;49.064;9.290;2023-04-28T07:14:28;98797.47;;;10.17;100.00
43153;BME280;28756;49.064;9.290;2023-04-28T07:16:54;98796.63;;;10.17;100.00
43153;BME280;28756;49.064;9.290;2023-04-28T07:19:20;98793.84;;;10.20;100.00
43153;BME280;28756;49.064;9.290;2023-04-28T07:21:46;98800.72;;;10.21;100.00
43153;BME280;28756;49.064;9.290;2023-04-28T07:24:12;98811.69;;;10.26;100.00
43153;BME280;28756;49.064;9.290;2023-04-28T07:26:37;98802.88;;;10.28;100.00
43153;BME280;28756;49.064;9.290;2023-04-28T07:29:03;98794.91;;;10.32;100.00
43153;BME280;28756;49.064;9.290;2023-04-28T07:31:29;98785.09;;;10.37;100.00
43153;BME280;28756;49.064;9.290;2023-04-28T07:33:55;98787.53;;;10.40;100.00
43153;BME280;28756;49.064;9.290;2023-04-28T07:36:21;98786.41;;;10.44;100.00
43153;BME280;28756;49.064;9.290;2023-04-28T07:38:47;98776.78;;;10.46;100.00
43153;BME280;28756;49.064;9.290;2023-04-28T07:41:13;98795.53;;;10.51;100.00
43153;BME280;28756;49.064;9.290;2023-04-28T07:43:39;98792.66;;;10.56;100.00
43153;BME280;28756;49.064;9.290;2023-04-28T07:46:06;98803.63;;;10.61;100.00
43153;BME280;28756;49.064;9.290;2023-04-28T07:48:33;98810.03;;;10.55;100.00
43153;BME280;28756;49.064;9.290;2023-04-28T07:51:00;98799.63;;;10.55;100.00
43153;BME280;28756;49.064;9.290;2023-04-28T07:53:26;98807.16;;;10.60;100.00
43153;BME280;28756;49.064;9.290;2023-04-28T07:55:53;98807.81;;;10.64;100.00
43153;BME280;28756;49.064;9.290;2023-04-28T07:58:18;98807.72;;;10.65;100.00
43153;BME280;28756;49.064;9.290;2023-04-28T08:00:47;98818.88;;;10.67;100.00
43153;BME280;28756;49.064;9.290;2023-04-28T08:03:13;98814.03;;;10.61;100.00
43153;BME280;28756;49.064;9.290;2023-04-28T08:05:39;98812.53;;;10.71;100.00
43153;BME280;28756;49.064;9.290;2023-04-28T08:08:05;98798.16;;;10.80;100.00
43153;BME280;28756;49.064;9.290;2023-04-28T08:10:31;98799.75;;;10.83;100.00
43153;BME280;28756;49.064;9.290;2023-04-28T08:12:57;98798.72;;;10.85;100.00
43153;BME280;28756;49.064;9.290;2023-04-28T08:15:23;98791.47;;;10.90;100.00
43153;BME280;28756;49.064;9.290;2023-04-28T08:17:51;98789.34;;;10.97;100.00
43153;BME280;28756;49.064;9.290;2023-04-28T08:20:16;98793.63;;;10.98;100.00
43153;BME280;28756;49.064;9.290;2023-04-28T08:22:47;98801.03;;;11.04;100.00
43153;BME280;28756;49.064;9.290;2023-04-28T08:25:12;98802.69;;;11.20;100.00
43153;BME280;28756;49.064;9.290;2023-04-28T08:27:38;98815.03;;;11.31;100.00
43153;BME280;28756;49.064;9.290;2023-04-28T08:30:07;98813.72;;;11.38;100.00
43153;BME280;28756;49.064;9.290;2023-04-28T08:32:33;98813.19;;;11.33;100.00
43153;BME280;28756;49.064;9.290;2023-04-28T08:34:59;98816.63;;;11.33;100.00
43153;BME280;28756;49.064;9.290;2023-04-28T08:37:28;98826.59;;;11.27;100.00
43153;BME280;28756;49.064;9.290;2023-04-28T08:39:54;98831.16;;;11.23;100.00
43153;BME280;28756;49.064;9.290;2023-04-28T08:42:30;98829.91;;;11.29;100.00
43153;BME280;28756;49.064;9.290;2023-04-28T08:44:58;98830.50;;;11.19;100.00
43153;BME280;28756;49.064;9.290;2023-04-28T08:47:34;98833.66;;;11.25;100.00
43153;BME280;28756;49.064;9.290;2023-04-28T08:50:05;98848.88;;;11.31;100.00
43153;BME280;28756;49.064;9.290;2023-04-28T08:52:34;98848.25;;;11.27;100.00
43153;BME280;28756;49.064;9.290;2023-04-28T08:55:08;98854.56;;;11.37;100.00
43153;BME280;28756;49.064;9.290;2023-04-28T08:57:45;98857.31;;;11.49;100.00
43153;BME280;28756;49.064;9.290;2023-04-28T09:00:14;98854.16;;;11.58;100.00
43153;BME280;28756;49.064;9.290;2023-04-28T09:02:40;98847.94;;;11.46;100.00
43153;BME280;28756;49.064;9.290;2023-04-28T09:05:12;98848.59;;;11.50;100.00
43153;BME280;28756;49.064;9.290;2023-04-28T09:07:39;98839.53;;;11.70;100.00
43153;BME280;28756;49.064;9.290;2023-04-28T09:10:22;98833.28;;;11.73;100.00
43153;BME280;28756;49.064;9.290;2023-04-28T09:12:53;98829.75;;;11.74;100.00
43153;BME280;28756;49.064;9.290;2023-04-28T09:15:37;98835.25;;;11.69;100.00
43153;BME280;28756;49.064;9.290;2023-04-28T09:18:06;98820.72;;;11.79;100.00
43153;BME280;28756;49.064;9.290;2023-04-28T09:20:34;98819.19;;;11.90;100.00
43153;BME280;28756;49.064;9.290;2023-04-28T09:26:02;98799.81;;;11.94;100.00
43153;BME280;28756;49.064;9.290;2023-04-28T09:28:29;98815.28;;;11.97;100.00
43153;BME280;28756;49.064;9.290;2023-04-28T09:30:55;98815.66;;;11.91;100.00
43153;BME280;28756;49.064;9.290;2023-04-28T09:33:22;98815.41;;;12.08;100.00
43153;BME280;28756;49.064;9.290;2023-04-28T09:35:48;98802.00;;;12.14;100.00
43153;BME280;28756;49.064;9.290;2023-04-28T09:38:15;98810.69;;;12.28;100.00
43153;BME280;28756;49.064;9.290;2023-04-28T09:40:59;98818.13;;;12.47;100.00
43153;BME280;28756;49.064;9.290;2023-04-28T09:45:54;98797.38;;;12.58;100.00
43153;BME280;28756;49.064;9.290;2023-04-28T09:48:35;98800.28;;;12.41;100.00
43153;BME280;28756;49.064;9.290;2023-04-28T09:51:04;98804.56;;;12.55;100.00
43153;BME280;28756;49.064;9.290;2023-04-28T09:53:31;98797.25;;;12.60;100.00
43153;BME280;28756;49.064;9.290;2023-04-28T09:56:00;98804.66;;;12.66;100.00
43153;BME280;28756;49.064;9.290;2023-04-28T09:58:28;98786.91;;;12.71;100.00
43153;BME280;28756;49.064;9.290;2023-04-28T10:00:59;98782.63;;;12.83;100.00
43153;BME280;28756;49.064;9.290;2023-04-28T10:03:29;98780.44;;;12.90;100.00
43153;BME280;28756;49.064;9.290;2023-04-28T10:05:57;98780.75;;;12.85;100.00
43153;BME280;28756;49.064;9.290;2023-04-28T10:08:24;98786.53;;;12.77;100.00
43153;BME280;28756;49.064;9.290;2023-04-28T10:10:51;98791.19;;;12.34;100.00
43153;BME280;28756;49.064;9.290;2023-04-28T10:13:20;98798.78;;;12.37;100.00
43153;BME280;28756;49.064;9.290;2023-04-28T10:15:47;98789.94;;;12.52;100.00
43153;BME280;28756;49.064;9.290;2023-04-28T10:18:14;98791.44;;;12.69;100.00
43153;BME280;28756;49.064;9.290;2023-04-28T10:20:47;98793.50;;;12.77;100.00
43153;BME280;28756;49.064;9.290;2023-04-28T10:26:16;98791.63;;;12.66;100.00
43153;BME280;28756;49.064;9.290;2023-04-28T10:28:48;98793.28;;;12.67;100.00
43153;BME280;28756;49.064;9.290;2023-04-28T10:31:19;98790.06;;;12.76;100.00
43153;BME280;28756;49.064;9.290;2023-04-28T10:33:46;98793.38;;;13.04;100.00
43153;BME280;28756;49.064;9.290;2023-04-28T10:36:47;98783.78;;;13.05;100.00
43153;BME280;28756;49.064;9.290;2023-04-28T10:39:15;98787.84;;;12.96;100.00
43153;BME280;28756;49.064;9.290;2023-04-28T10:41:41;98791.44;;;12.82;100.00
43153;BME280;28756;49.064;9.290;2023-04-28T10:55:25;98797.66;;;13.55;100.00
43153;BME280;28756;49.064;9.290;2023-04-28T11:00:42;98803.00;;;13.78;100.00
43153;BME280;28756;49.064;9.290;2023-04-28T11:06:20;98800.06;;;13.83;100.00
43153;BME280;28756;49.064;9.290;2023-04-28T11:11:38;98804.63;;;13.68;100.00
43153;BME280;28756;49.064;9.290;2023-04-28T11:16:58;98817.41;;;13.60;100.00
43153;BME280;28756;49.064;9.290;2023-04-28T11:19:40;98812.69;;;13.65;100.00
43153;BME280;28756;49.064;9.290;2023-04-28T11:22:20;98811.75;;;13.66;100.00
43153;BME280;28756;49.064;9.290;2023-04-28T11:25:01;98813.03;;;13.47;100.00
43153;BME280;28756;49.064;9.290;2023-04-28T11:27:32;98816.19;;;13.52;100.00
43153;BME280;28756;49.064;9.290;2023-04-28T11:29:58;98820.56;;;13.52;100.00
43153;BME280;28756;49.064;9.290;2023-04-28T11:32:30;98819.28;;;13.57;100.00
43153;BME280;28756;49.064;9.290;2023-04-28T11:34:57;98817.09;;;13.64;100.00
43153;BME280;28756;49.064;9.290;2023-04-28T11:37:22;98817.47;;;13.71;100.00
43153;BME280;28756;49.064;9.290;2023-04-28T11:39:49;98804.13;;;13.63;100.00
43153;BME280;28756;49.064;9.290;2023-04-28T11:42:15;98798.56;;;13.67;100.00
43153;BME280;28756;49.064;9.290;2023-04-28T11:44:48;98795.78;;;13.82;100.00
43153;BME280;28756;49.064;9.290;2023-04-28T11:47:14;98796.25;;;14.00;100.00
43153;BME280;28756;49.064;9.290;2023-04-28T11:49:45;98796.28;;;14.58;100.00
43153;BME280;28756;49.064;9.290;2023-04-28T11:52:12;98807.66;;;15.15;100.00
43153;BME280;28756;49.064;9.290;2023-04-28T11:54:38;98799.78;;;14.93;100.00
43153;BME280;28756;49.064;9.290;2023-04-28T11:57:19;98792.88;;;14.92;100.00
43153;BME280;28756;49.064;9.290;2023-04-28T11:59:45;98785.88;;;14.81;100.00
43153;BME280;28756;49.064;9.290;2023-04-28T12:02:11;98782.66;;;14.89;100.00
43153;BME280;28756;49.064;9.290;2023-04-28T12:04:40;98776.22;;;15.04;100.00
43153;BME280;28756;49.064;9.290;2023-04-28T12:07:12;98770.06;;;14.94;100.00
43153;BME280;28756;49.064;9.290;2023-04-28T12:09:47;98778.25;;;15.00;100.00
43153;BME280;28756;49.064;9.290;2023-04-28T12:12:30;98783.72;;;15.09;100.00
43153;BME280;28756;49.064;9.290;2023-04-28T12:15:04;98781.78;;;14.65;100.00
43153;BME280;28756;49.064;9.290;2023-04-28T12:17:41;98782.66;;;14.77;100.00
43153;BME280;28756;49.064;9.290;2023-04-28T12:20:32;98788.84;;;14.76;100.00
43153;BME280;28756;49.064;9.290;2023-04-28T12:22:59;98793.38;;;14.86;100.00
43153;BME280;28756;49.064;9.290;2023-04-28T12:25:25;98786.59;;;14.83;100.00
43153;BME280;28756;49.064;9.290;2023-04-28T12:28:06;98793.25;;;14.87;100.00
43153;BME280;28756;49.064;9.290;2023-04-28T12:30:36;98781.81;;;14.88;100.00
43153;BME280;28756;49.064;9.290;2023-04-28T12:35:49;98782.94;;;14.50;100.00
43153;BME280;28756;49.064;9.290;2023-04-28T12:38:15;98805.72;;;14.36;100.00
43153;BME280;28756;49.064;9.290;2023-04-28T12:40:41;98814.09;;;14.53;100.00
43153;BME280;28756;49.064;9.290;2023-04-28T12:43:07;98811.09;;;14.35;100.00
43153;BME280;28756;49.064;9.290;2023-04-28T12:45:33;98827.16;;;14.06;100.00
43153;BME280;28756;49.064;9.290;2023-04-28T12:47:59;98813.69;;;13.99;100.00
43153;BME280;28756;49.064;9.290;2023-04-28T12:50:24;98812.25;;;13.95;100.00
43153;BME280;28756;49.064;9.290;2023-04-28T12:52:52;98809.84;;;13.92;100.00
43153;BME280;28756;49.064;9.290;2023-04-28T12:55:18;98801.25;;;13.79;100.00
43153;BME280;28756;49.064;9.290;2023-04-28T12:57:43;98807.41;;;13.78;100.00
43153;BME280;28756;49.064;9.290;2023-04-28T13:00:10;98802.03;;;13.68;100.00
43153;BME280;28756;49.064;9.290;2023-04-28T13:02:41;98801.56;;;13.74;100.00
43153;BME280;28756;49.064;9.290;2023-04-28T13:05:07;98791.69;;;13.90;100.00
43153;BME280;28756;49.064;9.290;2023-04-28T13:07:33;98787.00;;;14.07;100.00
43153;BME280;28756;49.064;9.290;2023-04-28T13:09:59;98773.38;;;14.26;100.00
43153;BME280;28756;49.064;9.290;2023-04-28T13:12:25;98763.06;;;14.36;100.00
43153;BME280;28756;49.064;9.290;2023-04-28T13:14:51;98754.94;;;14.16;100.00
43153;BME280;28756;49.064;9.290;2023-04-28T13:17:17;98761.19;;;14.02;100.00
43153;BME280;28756;49.064;9.290;2023-04-28T13:19:42;98763.91;;;14.01;100.00
43153;BME280;28756;49.064;9.290;2023-04-28T13:22:08;98764.00;;;13.99;100.00
43153;BME280;28756;49.064;9.290;2023-04-28T13:24:34;98767.16;;;14.16;100.00
43153;BME280;28756;49.064;9.290;2023-04-28T13:27:00;98775.47;;;14.10;100.00
43153;BME280;28756;49.064;9.290;2023-04-28T13:29:34;98769.03;;;14.02;100.00